sensor_id;sensor_type;location;lat;lon;timestamp;noise_LAeq;noise_LA_min;noise_LA_max;noise_LA01;noise_LA95
71024;Laerm;61716;52.276;4.774;2022-08-25T00:00:01;36.40;33.30;43.43;;
71024;Laerm;61716;52.276;4.774;2022-08-25T00:00:12;36.52;32.02;41.79;;
71024;Laerm;61716;52.276;4.774;2022-08-25T00:00:22;34.72;31.79;40.56;;
71024;Laerm;61716;52.276;4.774;2022-08-25T00:00:33;36.78;34.08;39.28;;
71024;Laerm;61716;52.276;4.774;2022-08-25T00:00:43;34.80;31.96;38.68;;
71024;Laerm;61716;52.276;4.774;2022-08-25T00:00:53;33.45;30.87;36.18;;
71024;Laerm;61716;52.276;4.774;2022-08-25T00:01:07;33.36;30.73;38.82;;
71024;Laerm;61716;52.276;4.774;2022-08-25T00:01:19;36.31;32.38;44.21;;
71024;Laerm;61716;52.276;4.774;2022-08-25T00:01:31;36.64;32.36;41.97;;
71024;Laerm;61716;52.276;4.774;2022-08-25T00:01:44;42.78;36.50;48.77;;
71024;Laerm;61716;52.276;4.774;2022-08-25T00:01:56;50.49;37.24;61.54;;
71024;Laerm;61716;52.276;4.774;2022-08-25T00:02:07;42.04;34.18;48.04;;
71024;Laerm;61716;52.276;4.774;2022-08-25T00:02:17;33.99;31.56;37.10;;
71024;Laerm;61716;52.276;4.774;2022-08-25T00:02:27;34.16;31.82;36.44;;
71024;Laerm;61716;52.276;4.774;2022-08-25T00:02:39;40.05;33.44;47.54;;
71024;Laerm;61716;52.276;4.774;2022-08-25T00:02:49;36.45;31.77;44.33;;
71024;Laerm;61716;52.276;4.774;2022-08-25T00:02:59;38.46;33.74;46.81;;
71024;Laerm;61716;52.276;4.774;2022-08-25T00:03:10;44.28;33.52;51.01;;
71024;Laerm;61716;52.276;4.774;2022-08-25T00:03:20;37.20;33.19;43.56;;
71024;Laerm;61716;52.276;4.774;2022-08-25T00:03:30;36.23;33.30;40.87;;
71024;Laerm;61716;52.276;4.774;2022-08-25T00:03:41;34.60;31.35;38.37;;
71024;Laerm;61716;52.276;4.774;2022-08-25T00:03:51;33.26;30.87;36.08;;
71024;Laerm;61716;52.276;4.774;2022-08-25T00:04:03;33.35;31.10;36.73;;
71024;Laerm;61716;52.276;4.774;2022-08-25T00:04:14;38.28;32.87;44.38;;
71024;Laerm;61716;52.276;4.774;2022-08-25T00:04:25;36.07;33.03;41.61;;
71024;Laerm;61716;52.276;4.774;2022-08-25T00:04:35;35.46;32.18;38.88;;
71024;Laerm;61716;52.276;4.774;2022-08-25T00:04:46;36.53;32.22;45.99;;
71024;Laerm;61716;52.276;4.774;2022-08-25T00:04:56;36.14;33.23;40.29;;
71024;Laerm;61716;52.276;4.774;2022-08-25T00:05:06;38.05;34.71;41.61;;
71024;Laerm;61716;52.276;4.774;2022-08-25T00:05:16;39.80;34.93;46.77;;
71024;Laerm;61716;52.276;4.774;2022-08-25T00:05:27;41.81;36.24;48.71;;
71024;Laerm;61716;52.276;4.774;2022-08-25T00:05:37;36.72;34.16;41.26;;
71024;Laerm;61716;52.276;4.774;2022-08-25T00:05:48;36.05;33.44;39.09;;
71024;Laerm;61716;52.276;4.774;2022-08-25T00:05:58;34.69;32.52;39.75;;
71024;Laerm;61716;52.276;4.774;2022-08-25T00:06:09;33.60;31.27;37.44;;
71024;Laerm;61716;52.276;4.774;2022-08-25T00:06:20;39.02;34.50;46.39;;
71024;Laerm;61716;52.276;4.774;2022-08-25T00:06:31;38.94;33.86;43.17;;
71024;Laerm;61716;52.276;4.774;2022-08-25T00:06:41;41.69;35.82;47.30;;
71024;Laerm;61716;52.276;4.774;2022-08-25T00:06:52;39.34;32.01;46.66;;
71024;Laerm;61716;52.276;4.774;2022-08-25T00:07:05;33.53;31.03;38.03;;
71024;Laerm;61716;52.276;4.774;2022-08-25T00:07:16;35.01;32.49;39.04;;
71024;Laerm;61716;52.276;4.774;2022-08-25T00:07:26;33.06;31.27;35.37;;
71024;Laerm;61716;52.276;4.774;2022-08-25T00:07:36;32.77;31.00;34.84;;
71024;Laerm;61716;52.276;4.774;2022-08-25T00:07:46;34.25;31.25;39.32;;
71024;Laerm;61716;52.276;4.774;2022-08-25T00:07:56;34.62;32.13;37.97;;
71024;Laerm;61716;52.276;4.774;2022-08-25T00:08:07;34.60;32.05;37.07;;
71024;Laerm;61716;52.276;4.774;2022-08-25T00:08:17;33.93;32.44;35.73;;
71024;Laerm;61716;52.276;4.774;2022-08-25T00:08:27;34.95;32.11;39.12;;
71024;Laerm;61716;52.276;4.774;2022-08-25T00:08:38;36.26;32.81;39.35;;
71024;Laerm;61716;52.276;4.774;2022-08-25T00:08:49;35.20;33.31;37.18;;
71024;Laerm;61716;52.276;4.774;2022-08-25T00:08:59;34.50;31.88;37.62;;
71024;Laerm;61716;52.276;4.774;2022-08-25T00:09:10;33.93;31.82;35.65;;
71024;Laerm;61716;52.276;4.774;2022-08-25T00:09:22;36.41;32.86;41.01;;
71024;Laerm;61716;52.276;4.774;2022-08-25T00:09:33;37.75;32.75;43.74;;
71024;Laerm;61716;52.276;4.774;2022-08-25T00:09:44;34.20;32.17;37.86;;
71024;Laerm;61716;52.276;4.774;2022-08-25T00:09:54;38.47;33.22;45.75;;
71024;Laerm;61716;52.276;4.774;2022-08-25T00:10:05;36.70;34.07;41.33;;
71024;Laerm;61716;52.276;4.774;2022-08-25T00:10:15;37.57;34.09;41.42;;
71024;Laerm;61716;52.276;4.774;2022-08-25T00:10:26;44.86;36.67;51.48;;
71024;Laerm;61716;52.276;4.774;2022-08-25T00:10:37;42.77;34.51;49.84;;
71024;Laerm;61716;52.276;4.774;2022-08-25T00:10:47;36.53;34.60;39.40;;
71024;Laerm;61716;52.276;4.774;2022-08-25T00:10:57;53.65;36.68;64.07;;
71024;Laerm;61716;52.276;4.774;2022-08-25T00:11:09;36.76;34.01;42.41;;
71024;Laerm;61716;52.276;4.774;2022-08-25T00:11:22;38.88;34.98;45.09;;
71024;Laerm;61716;52.276;4.774;2022-08-25T00:11:33;36.93;32.90;41.95;;
71024;Laerm;61716;52.276;4.774;2022-08-25T00:11:44;42.03;35.38;49.56;;
71024;Laerm;61716;52.276;4.774;2022-08-25T00:11:54;35.78;32.98;40.17;;
71024;Laerm;61716;52.276;4.774;2022-08-25T00:12:04;40.37;34.84;46.23;;
71024;Laerm;61716;52.276;4.774;2022-08-25T00:12:15;35.96;33.65;39.19;;
71024;Laerm;61716;52.276;4.774;2022-08-25T00:12:25;33.72;31.46;36.92;;
71024;Laerm;61716;52.276;4.774;2022-08-25T00:12:35;33.73;32.03;36.35;;
71024;Laerm;61716;52.276;4.774;2022-08-25T00:12:45;33.12;31.45;34.76;;
71024;Laerm;61716;52.276;4.774;2022-08-25T00:12:56;40.33;32.26;47.24;;
71024;Laerm;61716;52.276;4.774;2022-08-25T00:13:06;38.33;34.25;42.30;;
71024;Laerm;61716;52.276;4.774;2022-08-25T00:13:16;38.90;35.01;44.34;;
71024;Laerm;61716;52.276;4.774;2022-08-25T00:13:27;35.05;31.73;38.18;;
71024;Laerm;61716;52.276;4.774;2022-08-25T00:13:38;33.51;31.60;39.21;;
71024;Laerm;61716;52.276;4.774;2022-08-25T00:13:53;34.68;31.39;43.64;;
71024;Laerm;61716;52.276;4.774;2022-08-25T00:14:05;34.77;32.20;39.63;;
71024;Laerm;61716;52.276;4.774;2022-08-25T00:14:23;33.37;31.08;35.82;;
71024;Laerm;61716;52.276;4.774;2022-08-25T00:14:35;33.87;31.78;36.50;;
71024;Laerm;61716;52.276;4.774;2022-08-25T00:14:45;35.43;32.21;41.36;;
71024;Laerm;61716;52.276;4.774;2022-08-25T00:14:56;35.00;32.72;38.23;;
71024;Laerm;61716;52.276;4.774;2022-08-25T00:15:06;35.09;32.96;37.36;;
71024;Laerm;61716;52.276;4.774;2022-08-25T00:15:18;36.24;32.57;39.93;;
71024;Laerm;61716;52.276;4.774;2022-08-25T00:15:30;34.14;32.61;36.01;;
71024;Laerm;61716;52.276;4.774;2022-08-25T00:15:41;37.14;33.50;40.85;;
71024;Laerm;61716;52.276;4.774;2022-08-25T00:15:51;37.38;33.96;42.64;;
71024;Laerm;61716;52.276;4.774;2022-08-25T00:16:01;39.99;35.13;45.68;;
71024;Laerm;61716;52.276;4.774;2022-08-25T00:16:13;36.43;33.65;40.99;;
71024;Laerm;61716;52.276;4.774;2022-08-25T00:16:23;37.27;33.95;45.26;;
71024;Laerm;61716;52.276;4.774;2022-08-25T00:16:34;37.63;33.75;41.50;;
71024;Laerm;61716;52.276;4.774;2022-08-25T00:16:44;42.88;36.48;51.74;;
71024;Laerm;61716;52.276;4.774;2022-08-25T00:16:55;37.81;35.54;40.32;;
71024;Laerm;61716;52.276;4.774;2022-08-25T00:17:05;36.03;33.13;39.24;;
71024;Laerm;61716;52.276;4.774;2022-08-25T00:17:15;33.68;31.96;36.10;;
71024;Laerm;61716;52.276;4.774;2022-08-25T00:17:25;34.26;32.11;36.90;;
71024;Laerm;61716;52.276;4.774;2022-08-25T00:17:37;33.84;31.30;36.61;;
71024;Laerm;61716;52.276;4.774;2022-08-25T00:17:47;33.94;31.55;36.53;;
71024;Laerm;61716;52.276;4.774;2022-08-25T00:17:58;34.94;32.61;36.78;;
71024;Laerm;61716;52.276;4.774;2022-08-25T00:18:09;35.24;32.21;38.82;;
71024;Laerm;61716;52.276;4.774;2022-08-25T00:18:19;37.02;33.81;41.94;;
71024;Laerm;61716;52.276;4.774;2022-08-25T00:18:29;36.08;33.25;41.41;;
71024;Laerm;61716;52.276;4.774;2022-08-25T00:18:40;42.63;39.30;46.10;;
71024;Laerm;61716;52.276;4.774;2022-08-25T00:18:52;37.45;33.67;41.08;;
71024;Laerm;61716;52.276;4.774;2022-08-25T00:19:06;37.17;32.90;43.35;;
71024;Laerm;61716;52.276;4.774;2022-08-25T00:19:19;38.83;35.15;44.33;;
71024;Laerm;61716;52.276;4.774;2022-08-25T00:19:31;37.78;34.15;40.94;;
71024;Laerm;61716;52.276;4.774;2022-08-25T00:19:41;34.70;32.50;37.31;;
71024;Laerm;61716;52.276;4.774;2022-08-25T00:19:52;34.55;31.90;37.12;;
71024;Laerm;61716;52.276;4.774;2022-08-25T00:20:03;39.61;33.23;45.05;;
71024;Laerm;61716;52.276;4.774;2022-08-25T00:20:14;37.64;32.82;46.31;;
71024;Laerm;61716;52.276;4.774;2022-08-25T00:20:24;37.29;33.16;41.76;;
71024;Laerm;61716;52.276;4.774;2022-08-25T00:20:35;34.56;32.64;37.46;;
71024;Laerm;61716;52.276;4.774;2022-08-25T00:20:45;34.38;31.74;37.26;;
71024;Laerm;61716;52.276;4.774;2022-08-25T00:20:56;35.05;33.03;37.70;;
71024;Laerm;61716;52.276;4.774;2022-08-25T00:21:06;36.38;32.54;40.28;;
71024;Laerm;61716;52.276;4.774;2022-08-25T00:21:17;35.33;31.73;42.95;;
71024;Laerm;61716;52.276;4.774;2022-08-25T00:21:27;33.80;32.06;36.60;;
71024;Laerm;61716;52.276;4.774;2022-08-25T00:21:38;34.02;31.93;35.88;;
71024;Laerm;61716;52.276;4.774;2022-08-25T00:21:50;35.08;33.08;37.43;;
71024;Laerm;61716;52.276;4.774;2022-08-25T00:22:00;37.10;33.70;40.62;;
71024;Laerm;61716;52.276;4.774;2022-08-25T00:22:11;34.22;31.52;38.19;;
71024;Laerm;61716;52.276;4.774;2022-08-25T00:22:21;33.58;31.67;35.85;;
71024;Laerm;61716;52.276;4.774;2022-08-25T00:22:32;34.69;31.61;38.27;;
71024;Laerm;61716;52.276;4.774;2022-08-25T00:22:42;34.07;31.50;39.30;;
71024;Laerm;61716;52.276;4.774;2022-08-25T00:22:52;39.56;33.28;46.74;;
71024;Laerm;61716;52.276;4.774;2022-08-25T00:23:02;34.13;32.29;36.65;;
71024;Laerm;61716;52.276;4.774;2022-08-25T00:23:13;35.01;33.05;36.86;;
71024;Laerm;61716;52.276;4.774;2022-08-25T00:23:23;40.20;34.11;47.88;;
71024;Laerm;61716;52.276;4.774;2022-08-25T00:23:33;39.31;33.21;46.10;;
71024;Laerm;61716;52.276;4.774;2022-08-25T00:23:43;33.66;31.68;36.80;;
71024;Laerm;61716;52.276;4.774;2022-08-25T00:23:54;32.84;31.43;34.35;;
71024;Laerm;61716;52.276;4.774;2022-08-25T00:24:04;32.57;30.98;34.07;;
71024;Laerm;61716;52.276;4.774;2022-08-25T00:24:16;32.49;30.46;33.87;;
71024;Laerm;61716;52.276;4.774;2022-08-25T00:24:26;32.62;31.23;34.05;;
71024;Laerm;61716;52.276;4.774;2022-08-25T00:24:37;35.67;31.38;42.09;;
71024;Laerm;61716;52.276;4.774;2022-08-25T00:24:47;36.36;32.74;39.12;;
71024;Laerm;61716;52.276;4.774;2022-08-25T00:24:57;32.62;30.16;34.91;;
71024;Laerm;61716;52.276;4.774;2022-08-25T00:25:07;33.21;30.95;35.84;;
71024;Laerm;61716;52.276;4.774;2022-08-25T00:25:18;41.43;32.05;46.53;;
71024;Laerm;61716;52.276;4.774;2022-08-25T00:25:28;37.33;30.50;44.51;;
71024;Laerm;61716;52.276;4.774;2022-08-25T00:25:39;32.16;30.37;33.97;;
71024;Laerm;61716;52.276;4.774;2022-08-25T00:25:49;32.15;29.97;34.79;;
71024;Laerm;61716;52.276;4.774;2022-08-25T00:26:00;34.49;31.22;37.83;;
71024;Laerm;61716;52.276;4.774;2022-08-25T00:26:10;36.62;32.82;40.49;;
71024;Laerm;61716;52.276;4.774;2022-08-25T00:26:21;33.77;31.88;38.93;;
71024;Laerm;61716;52.276;4.774;2022-08-25T00:26:31;33.50;31.90;36.82;;
71024;Laerm;61716;52.276;4.774;2022-08-25T00:26:43;32.20;30.41;34.07;;
71024;Laerm;61716;52.276;4.774;2022-08-25T00:26:56;34.83;31.58;40.22;;
71024;Laerm;61716;52.276;4.774;2022-08-25T00:27:07;33.28;31.15;35.11;;
71024;Laerm;61716;52.276;4.774;2022-08-25T00:27:17;34.01;32.13;36.67;;
71024;Laerm;61716;52.276;4.774;2022-08-25T00:27:27;32.80;31.16;34.79;;
71024;Laerm;61716;52.276;4.774;2022-08-25T00:27:37;32.68;31.03;34.93;;
71024;Laerm;61716;52.276;4.774;2022-08-25T00:27:48;34.06;32.05;36.64;;
71024;Laerm;61716;52.276;4.774;2022-08-25T00:27:58;34.03;32.12;36.49;;
71024;Laerm;61716;52.276;4.774;2022-08-25T00:28:09;33.37;31.62;36.22;;
71024;Laerm;61716;52.276;4.774;2022-08-25T00:28:19;34.36;32.67;36.68;;
71024;Laerm;61716;52.276;4.774;2022-08-25T00:28:30;36.69;32.46;41.68;;
71024;Laerm;61716;52.276;4.774;2022-08-25T00:28:40;39.27;34.00;48.71;;
71024;Laerm;61716;52.276;4.774;2022-08-25T00:28:50;37.76;35.07;42.43;;
71024;Laerm;61716;52.276;4.774;2022-08-25T00:29:02;40.35;34.72;46.91;;
71024;Laerm;61716;52.276;4.774;2022-08-25T00:29:12;36.98;34.64;41.10;;
71024;Laerm;61716;52.276;4.774;2022-08-25T00:29:23;36.02;33.52;38.41;;
71024;Laerm;61716;52.276;4.774;2022-08-25T00:29:35;34.74;31.94;38.65;;
71024;Laerm;61716;52.276;4.774;2022-08-25T00:29:46;39.35;35.11;45.02;;
71024;Laerm;61716;52.276;4.774;2022-08-25T00:29:57;42.21;35.77;47.60;;
71024;Laerm;61716;52.276;4.774;2022-08-25T00:30:07;40.50;35.49;46.34;;
71024;Laerm;61716;52.276;4.774;2022-08-25T00:30:18;45.96;35.87;54.09;;
71024;Laerm;61716;52.276;4.774;2022-08-25T00:30:28;49.80;35.81;59.82;;
71024;Laerm;61716;52.276;4.774;2022-08-25T00:30:39;38.81;34.55;43.21;;
71024;Laerm;61716;52.276;4.774;2022-08-25T00:30:49;38.31;33.58;43.49;;
71024;Laerm;61716;52.276;4.774;2022-08-25T00:31:00;37.61;33.34;41.06;;
71024;Laerm;61716;52.276;4.774;2022-08-25T00:31:12;34.17;31.71;36.89;;
71024;Laerm;61716;52.276;4.774;2022-08-25T00:31:23;37.16;32.59;41.63;;
71024;Laerm;61716;52.276;4.774;2022-08-25T00:31:33;41.13;33.27;48.43;;
71024;Laerm;61716;52.276;4.774;2022-08-25T00:31:43;36.02;32.45;40.95;;
71024;Laerm;61716;52.276;4.774;2022-08-25T00:31:54;34.45;32.43;39.73;;
71024;Laerm;61716;52.276;4.774;2022-08-25T00:32:04;34.54;32.03;38.33;;
71024;Laerm;61716;52.276;4.774;2022-08-25T00:32:15;36.35;33.95;39.66;;
71024;Laerm;61716;52.276;4.774;2022-08-25T00:32:25;38.22;35.49;41.50;;
71024;Laerm;61716;52.276;4.774;2022-08-25T00:32:36;37.07;34.27;40.23;;
71024;Laerm;61716;52.276;4.774;2022-08-25T00:32:46;34.11;32.01;37.84;;
71024;Laerm;61716;52.276;4.774;2022-08-25T00:32:57;36.92;33.26;43.67;;
71024;Laerm;61716;52.276;4.774;2022-08-25T00:33:08;35.89;33.22;38.76;;
71024;Laerm;61716;52.276;4.774;2022-08-25T00:33:19;37.55;33.59;41.13;;
71024;Laerm;61716;52.276;4.774;2022-08-25T00:33:30;33.41;31.71;35.35;;
71024;Laerm;61716;52.276;4.774;2022-08-25T00:33:40;37.08;32.08;42.83;;
71024;Laerm;61716;52.276;4.774;2022-08-25T00:33:51;33.68;31.25;38.04;;
71024;Laerm;61716;52.276;4.774;2022-08-25T00:34:02;33.61;31.68;36.76;;
71024;Laerm;61716;52.276;4.774;2022-08-25T00:34:14;37.07;34.32;42.11;;
71024;Laerm;61716;52.276;4.774;2022-08-25T00:34:32;36.75;33.83;40.58;;
71024;Laerm;61716;52.276;4.774;2022-08-25T00:34:43;36.23;33.10;40.29;;
71024;Laerm;61716;52.276;4.774;2022-08-25T00:34:54;35.52;33.07;38.79;;
71024;Laerm;61716;52.276;4.774;2022-08-25T00:35:04;34.67;32.20;37.19;;
71024;Laerm;61716;52.276;4.774;2022-08-25T00:35:15;34.17;32.04;36.02;;
71024;Laerm;61716;52.276;4.774;2022-08-25T00:35:26;33.66;32.20;35.34;;
71024;Laerm;61716;52.276;4.774;2022-08-25T00:35:37;33.58;31.79;35.95;;
71024;Laerm;61716;52.276;4.774;2022-08-25T00:35:47;33.51;31.50;36.15;;
71024;Laerm;61716;52.276;4.774;2022-08-25T00:35:58;33.33;31.76;35.43;;
71024;Laerm;61716;52.276;4.774;2022-08-25T00:36:09;35.11;32.85;37.64;;
71024;Laerm;61716;52.276;4.774;2022-08-25T00:36:21;39.88;34.17;47.72;;
71024;Laerm;61716;52.276;4.774;2022-08-25T00:36:31;34.35;31.95;37.78;;
71024;Laerm;61716;52.276;4.774;2022-08-25T00:36:42;35.33;32.95;38.21;;
71024;Laerm;61716;52.276;4.774;2022-08-25T00:36:53;41.53;34.72;49.28;;
71024;Laerm;61716;52.276;4.774;2022-08-25T00:37:03;42.66;35.91;47.84;;
71024;Laerm;61716;52.276;4.774;2022-08-25T00:37:16;34.77;32.64;37.60;;
71024;Laerm;61716;52.276;4.774;2022-08-25T00:37:26;34.62;33.01;36.59;;
71024;Laerm;61716;52.276;4.774;2022-08-25T00:37:36;36.45;33.65;39.99;;
71024;Laerm;61716;52.276;4.774;2022-08-25T00:37:47;34.77;32.41;36.66;;
71024;Laerm;61716;52.276;4.774;2022-08-25T00:37:57;35.20;32.73;37.74;;
71024;Laerm;61716;52.276;4.774;2022-08-25T00:38:08;40.08;33.74;46.00;;
71024;Laerm;61716;52.276;4.774;2022-08-25T00:38:19;39.13;34.08;46.03;;
71024;Laerm;61716;52.276;4.774;2022-08-25T00:38:29;39.82;33.78;46.21;;
71024;Laerm;61716;52.276;4.774;2022-08-25T00:38:41;37.33;34.45;42.24;;
71024;Laerm;61716;52.276;4.774;2022-08-25T00:38:52;36.72;33.50;42.86;;
71024;Laerm;61716;52.276;4.774;2022-08-25T00:39:03;36.66;33.91;40.06;;
71024;Laerm;61716;52.276;4.774;2022-08-25T00:39:13;37.48;34.35;41.22;;
71024;Laerm;61716;52.276;4.774;2022-08-25T00:39:24;34.62;32.26;38.35;;
71024;Laerm;61716;52.276;4.774;2022-08-25T00:39:34;33.88;31.62;36.47;;
71024;Laerm;61716;52.276;4.774;2022-08-25T00:39:45;34.32;32.01;36.97;;
71024;Laerm;61716;52.276;4.774;2022-08-25T00:39:55;37.80;33.35;42.88;;
71024;Laerm;61716;52.276;4.774;2022-08-25T00:40:07;34.80;32.85;39.34;;
71024;Laerm;61716;52.276;4.774;2022-08-25T00:40:17;34.18;32.35;36.83;;
71024;Laerm;61716;52.276;4.774;2022-08-25T00:40:28;34.64;32.52;37.56;;
71024;Laerm;61716;52.276;4.774;2022-08-25T00:40:38;37.33;33.48;39.58;;
71024;Laerm;61716;52.276;4.774;2022-08-25T00:40:48;37.56;35.29;41.24;;
71024;Laerm;61716;52.276;4.774;2022-08-25T00:41:20;38.77;34.80;46.40;;
71024;Laerm;61716;52.276;4.774;2022-08-25T00:41:31;49.51;36.24;60.99;;
71024;Laerm;61716;52.276;4.774;2022-08-25T00:41:44;34.99;32.20;39.31;;
71024;Laerm;61716;52.276;4.774;2022-08-25T00:41:54;34.71;32.07;38.47;;
71024;Laerm;61716;52.276;4.774;2022-08-25T00:42:08;34.79;32.80;38.03;;
71024;Laerm;61716;52.276;4.774;2022-08-25T00:42:19;35.68;33.76;38.73;;
71024;Laerm;61716;52.276;4.774;2022-08-25T00:42:30;40.48;33.92;49.22;;
71024;Laerm;61716;52.276;4.774;2022-08-25T00:42:40;40.88;34.92;46.18;;
71024;Laerm;61716;52.276;4.774;2022-08-25T00:42:50;37.43;33.22;41.87;;
71024;Laerm;61716;52.276;4.774;2022-08-25T00:43:01;36.12;33.32;38.82;;
71024;Laerm;61716;52.276;4.774;2022-08-25T00:43:11;34.50;32.22;36.35;;
71024;Laerm;61716;52.276;4.774;2022-08-25T00:43:21;38.00;34.14;41.39;;
71024;Laerm;61716;52.276;4.774;2022-08-25T00:43:41;37.65;34.04;41.63;;
71024;Laerm;61716;52.276;4.774;2022-08-25T00:43:56;35.11;32.39;39.43;;
71024;Laerm;61716;52.276;4.774;2022-08-25T00:44:08;36.11;32.64;40.07;;
71024;Laerm;61716;52.276;4.774;2022-08-25T00:44:18;36.53;32.83;41.73;;
71024;Laerm;61716;52.276;4.774;2022-08-25T00:44:29;34.18;32.14;37.54;;
71024;Laerm;61716;52.276;4.774;2022-08-25T00:44:40;36.81;32.54;42.38;;
71024;Laerm;61716;52.276;4.774;2022-08-25T00:44:50;38.54;33.17;46.12;;
71024;Laerm;61716;52.276;4.774;2022-08-25T00:45:00;35.05;33.02;37.51;;
71024;Laerm;61716;52.276;4.774;2022-08-25T00:45:11;38.62;34.26;41.68;;
71024;Laerm;61716;52.276;4.774;2022-08-25T00:45:21;36.63;34.42;39.48;;
71024;Laerm;61716;52.276;4.774;2022-08-25T00:45:33;34.75;32.49;36.60;;
71024;Laerm;61716;52.276;4.774;2022-08-25T00:45:43;39.90;32.86;44.96;;
71024;Laerm;61716;52.276;4.774;2022-08-25T00:45:53;37.04;32.89;42.20;;
71024;Laerm;61716;52.276;4.774;2022-08-25T00:46:04;35.88;32.28;40.06;;
71024;Laerm;61716;52.276;4.774;2022-08-25T00:46:15;35.65;32.99;38.51;;
71024;Laerm;61716;52.276;4.774;2022-08-25T00:46:28;33.40;31.14;37.00;;
71024;Laerm;61716;52.276;4.774;2022-08-25T00:46:41;32.23;30.52;35.04;;
71024;Laerm;61716;52.276;4.774;2022-08-25T00:46:52;34.78;31.09;41.65;;
71024;Laerm;61716;52.276;4.774;2022-08-25T00:47:04;36.39;32.00;42.32;;
71024;Laerm;61716;52.276;4.774;2022-08-25T00:47:15;32.60;30.78;34.89;;
71024;Laerm;61716;52.276;4.774;2022-08-25T00:47:26;32.47;31.03;35.39;;
71024;Laerm;61716;52.276;4.774;2022-08-25T00:47:36;32.11;30.55;33.79;;
71024;Laerm;61716;52.276;4.774;2022-08-25T00:47:47;31.99;30.37;33.85;;
71024;Laerm;61716;52.276;4.774;2022-08-25T00:47:57;32.45;30.85;36.88;;
71024;Laerm;61716;52.276;4.774;2022-08-25T00:48:07;33.37;30.87;36.52;;
71024;Laerm;61716;52.276;4.774;2022-08-25T00:48:18;34.89;32.59;38.95;;
71024;Laerm;61716;52.276;4.774;2022-08-25T00:48:28;34.29;32.24;37.45;;
71024;Laerm;61716;52.276;4.774;2022-08-25T00:48:38;36.81;32.20;44.89;;
71024;Laerm;61716;52.276;4.774;2022-08-25T00:48:52;33.99;31.58;37.39;;
71024;Laerm;61716;52.276;4.774;2022-08-25T00:49:06;36.26;33.36;39.98;;
71024;Laerm;61716;52.276;4.774;2022-08-25T00:49:22;38.52;34.05;43.52;;
71024;Laerm;61716;52.276;4.774;2022-08-25T00:49:47;35.76;31.18;40.03;;
71024;Laerm;61716;52.276;4.774;2022-08-25T00:49:58;35.26;32.82;37.94;;
71024;Laerm;61716;52.276;4.774;2022-08-25T00:50:10;35.49;32.57;42.41;;
71024;Laerm;61716;52.276;4.774;2022-08-25T00:50:21;37.21;34.01;40.01;;
71024;Laerm;61716;52.276;4.774;2022-08-25T00:50:31;35.02;32.00;38.51;;
71024;Laerm;61716;52.276;4.774;2022-08-25T00:50:43;35.61;32.12;39.32;;
71024;Laerm;61716;52.276;4.774;2022-08-25T00:50:53;39.52;34.74;44.43;;
71024;Laerm;61716;52.276;4.774;2022-08-25T00:51:04;39.85;36.80;42.77;;
71024;Laerm;61716;52.276;4.774;2022-08-25T00:51:19;40.06;33.66;44.54;;
71024;Laerm;61716;52.276;4.774;2022-08-25T00:51:36;34.70;31.69;40.51;;
71024;Laerm;61716;52.276;4.774;2022-08-25T00:51:49;34.79;31.87;40.33;;
71024;Laerm;61716;52.276;4.774;2022-08-25T00:52:22;34.20;32.00;37.23;;
71024;Laerm;61716;52.276;4.774;2022-08-25T00:52:31;34.33;31.23;40.75;;
71024;Laerm;61716;52.276;4.774;2022-08-25T00:52:45;36.91;32.99;42.42;;
71024;Laerm;61716;52.276;4.774;2022-08-25T00:52:57;36.65;32.55;41.13;;
71024;Laerm;61716;52.276;4.774;2022-08-25T00:53:08;36.83;33.16;39.83;;
71024;Laerm;61716;52.276;4.774;2022-08-25T00:53:19;34.30;32.45;36.34;;
71024;Laerm;61716;52.276;4.774;2022-08-25T00:53:30;35.16;32.29;40.09;;
71024;Laerm;61716;52.276;4.774;2022-08-25T00:53:41;34.79;32.27;40.14;;
71024;Laerm;61716;52.276;4.774;2022-08-25T00:53:51;34.16;32.31;36.53;;
71024;Laerm;61716;52.276;4.774;2022-08-25T00:54:02;35.02;32.98;37.17;;
71024;Laerm;61716;52.276;4.774;2022-08-25T00:54:14;37.03;33.83;40.90;;
71024;Laerm;61716;52.276;4.774;2022-08-25T00:54:37;36.81;32.45;40.29;;
71024;Laerm;61716;52.276;4.774;2022-08-25T00:54:52;34.54;32.63;37.15;;
71024;Laerm;61716;52.276;4.774;2022-08-25T00:55:05;38.73;34.77;42.27;;
71024;Laerm;61716;52.276;4.774;2022-08-25T00:55:18;37.18;34.26;42.20;;
71024;Laerm;61716;52.276;4.774;2022-08-25T00:55:32;38.40;34.80;42.11;;
71024;Laerm;61716;52.276;4.774;2022-08-25T00:55:44;36.95;33.49;40.71;;
71024;Laerm;61716;52.276;4.774;2022-08-25T00:55:54;36.37;33.54;41.97;;
71024;Laerm;61716;52.276;4.774;2022-08-25T00:56:04;37.92;35.00;41.16;;
71024;Laerm;61716;52.276;4.774;2022-08-25T00:56:15;44.98;39.70;49.98;;
71024;Laerm;61716;52.276;4.774;2022-08-25T00:56:26;40.37;37.30;43.24;;
71024;Laerm;61716;52.276;4.774;2022-08-25T00:56:37;36.33;33.72;39.81;;
71024;Laerm;61716;52.276;4.774;2022-08-25T00:56:48;37.40;34.49;42.61;;
71024;Laerm;61716;52.276;4.774;2022-08-25T00:57:00;36.62;33.66;43.50;;
71024;Laerm;61716;52.276;4.774;2022-08-25T00:57:12;36.32;33.82;39.10;;
71024;Laerm;61716;52.276;4.774;2022-08-25T00:57:25;44.73;36.31;53.35;;
71024;Laerm;61716;52.276;4.774;2022-08-25T00:57:42;50.81;36.80;61.32;;
71024;Laerm;61716;52.276;4.774;2022-08-25T00:57:54;37.78;33.03;42.35;;
71024;Laerm;61716;52.276;4.774;2022-08-25T00:58:07;36.86;31.92;54.09;;
71024;Laerm;61716;52.276;4.774;2022-08-25T00:58:24;34.40;31.85;39.20;;
71024;Laerm;61716;52.276;4.774;2022-08-25T00:58:35;34.59;31.86;37.13;;
71024;Laerm;61716;52.276;4.774;2022-08-25T00:58:46;35.58;32.25;40.46;;
71024;Laerm;61716;52.276;4.774;2022-08-25T00:58:57;43.24;34.29;53.46;;
71024;Laerm;61716;52.276;4.774;2022-08-25T00:59:08;34.89;31.69;39.27;;
71024;Laerm;61716;52.276;4.774;2022-08-25T00:59:20;33.37;31.73;35.39;;
71024;Laerm;61716;52.276;4.774;2022-08-25T00:59:31;34.45;30.60;39.76;;
71024;Laerm;61716;52.276;4.774;2022-08-25T00:59:41;34.06;32.29;36.54;;
71024;Laerm;61716;52.276;4.774;2022-08-25T00:59:53;36.15;31.94;41.41;;
71024;Laerm;61716;52.276;4.774;2022-08-25T01:00:06;34.50;30.81;37.87;;
71024;Laerm;61716;52.276;4.774;2022-08-25T01:00:37;32.53;31.04;34.41;;
71024;Laerm;61716;52.276;4.774;2022-08-25T01:00:49;32.79;30.67;36.39;;
71024;Laerm;61716;52.276;4.774;2022-08-25T01:01:00;32.85;30.70;35.24;;
71024;Laerm;61716;52.276;4.774;2022-08-25T01:01:10;32.27;30.62;33.80;;
71024;Laerm;61716;52.276;4.774;2022-08-25T01:01:20;31.75;29.73;33.19;;
71024;Laerm;61716;52.276;4.774;2022-08-25T01:01:30;32.02;30.45;36.77;;
71024;Laerm;61716;52.276;4.774;2022-08-25T01:01:41;32.00;30.22;33.18;;
71024;Laerm;61716;52.276;4.774;2022-08-25T01:01:51;31.97;30.23;33.74;;
71024;Laerm;61716;52.276;4.774;2022-08-25T01:02:03;32.24;30.55;36.45;;
71024;Laerm;61716;52.276;4.774;2022-08-25T01:02:14;35.02;31.00;43.97;;
71024;Laerm;61716;52.276;4.774;2022-08-25T01:02:24;34.03;32.01;37.86;;
71024;Laerm;61716;52.276;4.774;2022-08-25T01:02:34;39.73;33.07;45.65;;
71024;Laerm;61716;52.276;4.774;2022-08-25T01:02:45;32.85;31.05;36.71;;
71024;Laerm;61716;52.276;4.774;2022-08-25T01:02:55;32.10;30.43;33.57;;
71024;Laerm;61716;52.276;4.774;2022-08-25T01:03:06;32.71;30.50;34.74;;
71024;Laerm;61716;52.276;4.774;2022-08-25T01:03:17;33.63;31.58;36.48;;